• Join FlightAware (Why Join?)
  • Login
  • US Flag 
12:07AM EDT


 

Airport Tracker/Info


-or-


 

Live Flight TrackerFlight Track Log ✈ SWA418 ✈ 11-Oct-2013 ✈ KHOU - KBNA

Flight Track Log - Related Links

Times and Time Zones

All times are in EDT time to prevent confusion due to time zone crossing. See the SWA418 flight status page for this flight to view local times or setup timezone preferences in your user account.

Time Position Orientation Groundspeed Altitude Reporting Facility
EDT Latitude Longitude Course Direction KTS MPH feet Rate Location/Type
09:34PM 29.6514 -95.2342 46° Northeast 231 266 2,200  Level Houston Center
09:35PM 29.6844 -95.2383 354° North 255 293 3,600 2,520 Climbing Houston Center
09:36PM 29.7564 -95.2425 357° North 256 295 6,300 2,760 Climbing Houston Center
09:37PM 29.8419 -95.2439 359° North 297 342 9,300 2,400 Climbing Houston Center
09:38PM 29.9286 -95.2456 359° North 310 357 11,300 2,220 Climbing Houston Center
09:39PM 30.0258 -95.2094 18° North 362 417 13,900 2,340 Climbing Houston Center
09:40PM 30.1200 -95.1528 27° Northeast 378 435 16,100 2,220 Climbing Houston Center
09:41PM 30.2403 -95.0819 27° Northeast 401 461 18,500 2,040 Climbing Houston Center
09:42PM 30.3458 -95.0172 28° Northeast 423 487 20,300 1,680 Climbing Houston Center
09:43PM 30.4381 -94.9614 28° Northeast 433 498 22,000 1,860 Climbing Houston Center
09:44PM 30.5694 -94.8825 27° Northeast 442 509 24,100 1,680 Climbing Houston Center
09:45PM 30.6747 -94.8003 34° Northeast 453 521 25,500 1,320 Climbing Houston Center
09:46PM 30.7817 -94.7164 34° Northeast 465 535 26,800 1,140 Climbing Houston Center
09:47PM 30.8917 -94.6303 34° Northeast 478 550 27,900 1,080 Climbing Houston Center
09:48PM 31.0036 -94.5444 33° Northeast 485 558 29,100 1,380 Climbing Houston Center
09:49PM 31.1133 -94.4578 34° Northeast 484 557 30,800 1,260 Climbing Houston Center
09:50PM 31.2242 -94.3728 33° Northeast 482 555 31,700 1,020 Climbing Houston Center
09:51PM 31.3350 -94.2858 34° Northeast 484 557 32,900 1,320 Climbing Houston Center
09:52PM 31.4667 -94.1833 34° Northeast 476 548 34,400 1,020 Climbing Houston Center
09:53PM 31.5733 -94.0936 36° Northeast 473 544 35,000 240 Climbing Houston Center
09:54PM 31.6628 -93.9733 49° Northeast 488 562 35,000  Level Houston Center
09:55PM 31.7514 -93.8525 49° Northeast 490 564 35,000  Level Houston Center
09:56PM 31.8350 -93.7369 50° Northeast 486 559 35,000  Level Houston Center
09:57PM 31.9236 -93.6158 49° Northeast 485 558 35,000  Level Houston Center
09:58PM 32.0117 -93.4936 50° Northeast 488 562 35,000  Level Houston Center
09:59PM 32.0994 -93.3725 49° Northeast 485 558 35,000  Level Houston Center
10:00PM 32.1878 -93.2497 50° Northeast 488 562 35,000  Level Houston Center
10:01PM 32.2819 -93.1133 51° Northeast 496 571 35,000  Level Fort Worth Center
10:02PM 32.3858 -92.9781 48° Northeast 476 548 35,000  Level Fort Worth Center
10:03PM 32.4750 -92.8456 51° Northeast 488 562 35,000  Level Fort Worth Center
10:04PM 32.5622 -92.7228 50° Northeast 488 562 35,000  Level Fort Worth Center
10:05PM 32.6494 -92.6000 50° Northeast 488 562 35,000  Level Fort Worth Center
10:06PM 32.7364 -92.4767 50° Northeast 488 562 35,000  Level Fort Worth Center
10:08PM 32.8786 -92.2769 50° Northeast 500 575 35,000  Level Memphis Center
10:09PM 32.9639 -92.1550 50° Northeast 485 558 35,000  Level Memphis Center
10:10PM 33.0511 -92.0278 51° Northeast 485 558 35,000  Level Memphis Center
10:11PM 33.1342 -91.9053 51° Northeast 479 551 35,000  Level Memphis Center
10:12PM 33.2211 -91.7825 50° Northeast 479 551 35,000  Level Memphis Center
10:13PM 33.3061 -91.6597 50° Northeast 474 545 35,000  Level Memphis Center
10:14PM 33.3950 -91.5342 50° Northeast 474 545 35,000  Level Memphis Center
10:15PM 33.4775 -91.4108 51° Northeast 474 545 35,000  Level Memphis Center
10:16PM 33.5619 -91.2869 51° Northeast 474 545 35,000  Level Memphis Center
10:17PM 33.6464 -91.1658 50° Northeast 469 540 35,000  Level Memphis Center
10:18PM 33.7283 -91.0442 51° Northeast 469 540 35,000  Level Memphis Center
10:19PM 33.8231 -90.9072 50° Northeast 469 540 35,000  Level Memphis Center
10:20PM 33.9028 -90.7828 52° Northeast 464 534 35,000  Level Memphis Center
10:21PM 33.9908 -90.6578 50° Northeast 469 540 35,000  Level Memphis Center
10:22PM 34.0619 -90.5453 53° Northeast 469 540 35,000  Level Memphis Center
10:23PM 34.1478 -90.4200 50° Northeast 469 540 35,000  Level Memphis Center
10:24PM 34.2292 -90.2969 51° Northeast 469 540 35,000  Level Memphis Center
10:25PM 34.3125 -90.1686 52° Northeast 469 540 35,000  Level Memphis Center
10:26PM 34.3956 -90.0450 51° Northeast 469 540 35,000  Level Memphis Center
10:27PM 34.4786 -89.9161 52° Northeast 469 540 35,000  Level Memphis Center
10:28PM 34.5617 -89.7897 51° Northeast 469 540 35,000  Level Memphis Center
10:29PM 34.6422 -89.6603 53° Northeast 469 540 35,000  Level Memphis Center
10:30PM 34.7250 -89.5308 52° Northeast 474 545 35,000  Level Memphis Center
10:31PM 34.8097 -89.4036 51° Northeast 479 551 35,000  Level Memphis Center
10:32PM 34.8919 -89.2786 51° Northeast 479 551 35,000 -60 Level Memphis Center
10:33PM 34.9722 -89.1558 51° Northeast 466 536 34,900 -600 Descending Memphis Center
10:34PM 35.0544 -89.0303 51° Northeast 466 536 33,900 -1,020 Descending Memphis Center
10:35PM 35.1447 -88.8919 51° Northeast 466 536 32,900 -960 Descending Memphis Center
10:36PM 35.2244 -88.7633 53° Northeast 466 536 32,000 -960 Descending Memphis Center
10:37PM 35.3042 -88.6372 52° Northeast 466 536 31,000 -960 Descending Memphis Center
10:38PM 35.3836 -88.5081 53° Northeast 471 542 30,100 -960 Descending Memphis Center
10:39PM 35.4589 -88.3917 52° Northeast 471 542 29,100 -960 Descending Memphis Center
10:40PM 35.5403 -88.2647 52° Northeast 471 542 28,200 -960 Descending Memphis Center
10:41PM 35.6175 -88.1403 53° Northeast 464 534 27,200 -1,620 Descending Memphis Center
10:42PM 35.6669 -88.0011 66° East 452 520 25,000 -2,340 Descending Memphis Center
10:43PM 35.7081 -87.8567 71° East 442 509 22,600 -2,400 Descending Memphis Center
10:44PM 35.7511 -87.7222 68° East 424 488 20,300 -2,280 Descending Memphis Center
10:45PM 35.7900 -87.5931 70° East 410 472 18,100 -2,220 Descending Memphis Center
10:46PM 35.8308 -87.4714 67° East 388 447 15,900 -2,340 Descending Memphis Center
10:47PM 35.8739 -87.3494 66° East 377 434 13,500 -2,340 Descending Memphis Center
10:48PM 35.9208 -87.2247 65° Northeast 366 421 11,300 -1,740 Descending Memphis Center
10:49PM 35.9597 -87.1156 66° East 361 415 10,100 -1,200 Descending Memphis Center
10:50PM 35.9992 -87.0242 62° Northeast 323 372 8,900 -1,380 Descending Memphis Center
10:51PM 36.0342 -86.9356 64° Northeast 294 338 7,400 -1,380 Descending Memphis Center
10:52PM 36.0714 -86.8467 63° Northeast 289 333 6,200 -960 Descending Memphis Center
10:53PM 36.1239 -86.7906 41° Northeast 254 292 5,500 -1,200 Descending Memphis Center
10:54PM 36.1961 -86.7617 18° North 254 292 3,800 -1,260 Descending Memphis Center
10:55PM 36.2636 -86.7225 25° Northeast 273 314 3,000 -600 Descending Memphis Center
10:56PM 36.2489 -86.6461 103° East 193 222 2,700 -540 Descending Memphis Center
10:57PM 36.1986 -86.6328 168° South 141 162 2,000 -840 Descending Memphis Center
10:58PM 36.1572 -86.6500 199° South 146 168 1,100 -720 Descending Memphis Center
10:59PM 36.1161 -86.6622 194° South 146 168 600 -540 Descending Memphis Center
11:01PM 36.1167 -86.6667 211° Southwest  Level FlightAware Approximate
11:08PM 36.1245 -86.6782 211° Southwest  Level Estimated
11:09PM 36.1245 -86.6782 211° Southwest  Level Estimated
11:10PM 36.1245 -86.6782 211° Southwest  Level Estimated
11:11PM 36.1245 -86.6782 211° Southwest  Level Estimated
11:12PM 36.1245 -86.6782 211° Southwest  Level Estimated
11:13PM 36.1245 -86.6782 211° Southwest  Level Estimated
11:14PM 36.1245 -86.6782 211° Southwest  Level Estimated
11:15PM 36.1245 -86.6782 211° Southwest  Level Estimated